createdAt,value
2018-09-03T00:02:20.967Z,19.70
2018-09-03T00:04:49.151Z,19.60
2018-09-03T00:07:17.323Z,19.60
2018-09-03T00:09:45.502Z,19.60
2018-09-03T00:12:13.669Z,19.60
2018-09-03T00:14:41.858Z,19.60
2018-09-03T00:17:10.235Z,19.60
2018-09-03T00:19:38.626Z,19.50
2018-09-03T00:22:07.310Z,19.60
2018-09-03T00:24:35.597Z,19.50
2018-09-03T00:27:03.778Z,19.50
2018-09-03T00:29:31.989Z,19.60
2018-09-03T00:32:05.574Z,19.50
2018-09-03T00:34:39.082Z,19.50
2018-09-03T00:37:12.614Z,19.50
2018-09-03T00:39:46.018Z,19.50
2018-09-03T00:42:19.810Z,19.50
2018-09-03T00:44:53.498Z,19.50
2018-09-03T00:47:21.666Z,19.50
2018-09-03T00:49:49.951Z,19.40
2018-09-03T00:52:18.114Z,19.40
2018-09-03T00:54:46.306Z,19.40
2018-09-03T00:57:14.493Z,19.40
2018-09-03T00:59:42.675Z,19.50
2018-09-03T01:02:10.850Z,19.50
2018-09-03T01:04:39.031Z,19.50
2018-09-03T01:07:07.312Z,19.50
2018-09-03T01:09:35.536Z,19.50
2018-09-03T01:12:03.717Z,19.50
2018-09-03T01:14:32.031Z,19.50
2018-09-03T01:17:00.313Z,19.40
2018-09-03T01:19:28.515Z,19.40
2018-09-03T01:21:56.691Z,19.40
2018-09-03T01:24:24.858Z,19.40
2018-09-03T01:26:53.041Z,19.40
2018-09-03T01:29:21.294Z,19.40
2018-09-03T01:31:49.468Z,19.40
2018-09-03T01:34:17.637Z,19.40
2018-09-03T01:36:45.874Z,19.40
2018-09-03T01:39:14.116Z,19.40
2018-09-03T01:41:42.296Z,19.30
2018-09-03T01:44:10.464Z,19.30
2018-09-03T01:46:38.662Z,19.30
2018-09-03T01:49:06.989Z,19.30
2018-09-03T01:51:35.166Z,19.30
2018-09-03T01:54:03.329Z,19.30
2018-09-03T01:56:31.538Z,19.30
2018-09-03T01:58:59.722Z,19.30
2018-09-03T02:01:27.921Z,19.30
2018-09-03T02:03:56.060Z,19.30
2018-09-03T02:06:24.190Z,19.30
2018-09-03T02:08:52.366Z,19.30
2018-09-03T02:11:20.506Z,19.30
2018-09-03T02:13:48.667Z,19.30
2018-09-03T02:16:16.815Z,19.30
2018-09-03T02:18:44.969Z,19.30
2018-09-03T02:21:13.135Z,19.20
2018-09-03T02:23:41.286Z,19.20
2018-09-03T02:26:09.454Z,19.20
2018-09-03T02:28:37.610Z,19.20
2018-09-03T02:31:05.747Z,19.20
2018-09-03T02:33:33.899Z,19.20
2018-09-03T02:36:03.101Z,19.20
2018-09-03T02:38:31.274Z,19.10
2018-09-03T02:40:59.414Z,19.10
2018-09-03T02:43:27.573Z,19.10
2018-09-03T02:45:55.719Z,19.00
2018-09-03T02:48:23.875Z,19.00
2018-09-03T02:50:52.026Z,19.00
2018-09-03T02:53:20.213Z,19.00
2018-09-03T02:55:48.454Z,19.10
2018-09-03T02:58:16.658Z,19.10
2018-09-03T03:00:44.833Z,19.10
2018-09-03T03:03:13.010Z,19.10
2018-09-03T03:05:41.196Z,19.10
2018-09-03T03:08:09.422Z,19.10
2018-09-03T03:10:37.596Z,19.10
2018-09-03T03:13:05.913Z,19.10
2018-09-03T03:15:34.130Z,19.10
2018-09-03T03:18:02.304Z,19.20
2018-09-03T03:20:30.482Z,19.20
2018-09-03T03:22:58.660Z,19.10
2018-09-03T03:25:26.846Z,19.10
2018-09-03T03:27:55.199Z,19.10
2018-09-03T03:30:23.374Z,19.10
2018-09-03T03:32:51.558Z,19.00
2018-09-03T03:35:19.743Z,19.00
2018-09-03T03:37:49.016Z,19.10
2018-09-03T03:40:18.178Z,19.10
2018-09-03T03:42:46.383Z,19.10
2018-09-03T03:45:14.561Z,19.10
2018-09-03T03:47:42.750Z,19.00
2018-09-03T03:50:11.027Z,19.00
2018-09-03T03:52:39.257Z,19.00
2018-09-03T03:55:07.786Z,19.00
2018-09-03T03:57:36.443Z,19.00
2018-09-03T04:00:04.638Z,19.00
2018-09-03T04:02:32.782Z,19.00
2018-09-03T04:05:00.928Z,18.90
2018-09-03T04:07:29.083Z,18.90
2018-09-03T04:09:57.301Z,18.90
2018-09-03T04:12:25.466Z,18.90
2018-09-03T04:14:53.610Z,18.90
2018-09-03T04:17:21.803Z,18.90
2018-09-03T04:19:56.271Z,18.90
2018-09-03T04:22:24.423Z,18.90
2018-09-03T04:24:52.581Z,18.90
2018-09-03T04:27:20.750Z,18.80
2018-09-03T04:29:48.906Z,18.80
2018-09-03T04:32:17.090Z,18.80
2018-09-03T04:34:45.238Z,18.80
2018-09-03T04:37:13.406Z,18.80
2018-09-03T04:39:41.615Z,18.70
2018-09-03T04:42:09.766Z,18.70
2018-09-03T04:44:37.909Z,18.70
2018-09-03T04:47:06.098Z,18.70
2018-09-03T04:49:35.894Z,18.70
2018-09-03T04:52:04.050Z,18.60
2018-09-03T04:54:32.215Z,18.60
2018-09-03T04:57:00.413Z,18.60
2018-09-03T04:59:28.614Z,18.50
2018-09-03T05:01:56.759Z,18.50
2018-09-03T05:04:24.927Z,18.50
2018-09-03T05:06:53.058Z,18.40
2018-09-03T05:09:21.233Z,18.40
2018-09-03T05:11:49.425Z,18.30
2018-09-03T05:14:17.566Z,18.30
2018-09-03T05:16:45.710Z,18.40
2018-09-03T05:19:13.912Z,18.40
2018-09-03T05:21:42.047Z,18.40
2018-09-03T05:24:10.197Z,18.40
2018-09-03T05:26:38.330Z,18.40
2018-09-03T05:29:06.516Z,18.40
2018-09-03T05:31:34.658Z,18.40
2018-09-03T05:34:02.806Z,18.50
2018-09-03T05:36:30.951Z,18.50
2018-09-03T05:38:59.094Z,18.50
2018-09-03T05:41:27.232Z,18.50
2018-09-03T05:43:55.446Z,18.50
2018-09-03T05:46:23.550Z,18.60
2018-09-03T05:48:51.741Z,18.50
2018-09-03T05:51:19.894Z,18.60
2018-09-03T05:53:48.088Z,18.60
2018-09-03T05:56:16.262Z,18.60
2018-09-03T05:58:44.477Z,18.60
2018-09-03T06:01:12.716Z,18.60
2018-09-03T06:03:40.882Z,18.60
2018-09-03T06:06:09.062Z,18.60
2018-09-03T06:08:37.243Z,18.60
2018-09-03T06:11:05.441Z,18.60
2018-09-03T06:13:33.610Z,18.70
2018-09-03T06:16:01.792Z,18.70
2018-09-03T06:18:29.957Z,18.70
2018-09-03T06:20:58.138Z,18.70
2018-09-03T06:23:26.309Z,18.70
2018-09-03T06:25:54.494Z,18.70
2018-09-03T06:28:22.669Z,18.70
2018-09-03T06:30:50.870Z,18.70
2018-09-03T06:33:19.056Z,18.80
2018-09-03T06:35:47.247Z,18.80
2018-09-03T06:38:15.414Z,18.70
2018-09-03T06:40:43.618Z,18.70
2018-09-03T06:43:11.771Z,18.70
2018-09-03T06:45:39.923Z,18.80
2018-09-03T06:48:08.110Z,18.80
2018-09-03T06:50:36.274Z,18.90
2018-09-03T06:53:04.454Z,19.00
2018-09-03T06:55:32.607Z,19.10
2018-09-03T06:58:00.754Z,19.20
2018-09-03T07:00:28.934Z,19.10
2018-09-03T07:02:57.095Z,19.10
2018-09-03T07:05:25.255Z,19.20
2018-09-03T07:07:53.410Z,19.20
2018-09-03T07:10:21.602Z,19.20
2018-09-03T07:12:49.870Z,19.20
2018-09-03T07:15:18.022Z,19.20
2018-09-03T07:17:46.182Z,19.20
2018-09-03T07:20:14.385Z,19.30
2018-09-03T07:22:42.610Z,19.40
2018-09-03T07:25:10.750Z,19.40
2018-09-03T07:27:39.131Z,19.40
2018-09-03T07:30:07.389Z,19.40
2018-09-03T07:32:35.547Z,19.50
2018-09-03T07:35:03.719Z,19.40
2018-09-03T07:37:31.838Z,19.40
2018-09-03T07:40:00.006Z,19.30
2018-09-03T07:42:28.153Z,19.30
2018-09-03T07:44:56.299Z,19.30
2018-09-03T07:47:24.462Z,19.40
2018-09-03T07:49:52.630Z,19.40
2018-09-03T07:52:20.773Z,19.50
2018-09-03T07:54:48.945Z,19.60
2018-09-03T07:57:17.125Z,19.70
2018-09-03T07:59:45.440Z,19.70
2018-09-03T08:02:13.612Z,19.70
2018-09-03T08:04:41.779Z,19.70
2018-09-03T08:07:09.967Z,19.80
2018-09-03T08:09:38.159Z,19.80
2018-09-03T08:12:06.930Z,19.80
2018-09-03T08:14:35.214Z,19.80
2018-09-03T08:17:03.386Z,19.90
2018-09-03T08:19:31.621Z,19.90
2018-09-03T08:22:00.372Z,19.80
2018-09-03T08:24:28.572Z,19.80
2018-09-03T08:26:56.738Z,19.80
2018-09-03T08:29:24.917Z,19.90
2018-09-03T08:31:53.097Z,19.90
2018-09-03T08:34:21.290Z,19.90
2018-09-03T08:36:49.451Z,19.90
2018-09-03T08:39:17.738Z,19.90
2018-09-03T08:41:45.970Z,19.90
2018-09-03T08:44:14.163Z,19.90
2018-09-03T08:46:42.366Z,19.90
2018-09-03T08:49:10.833Z,19.90
2018-09-03T08:51:39.015Z,19.90
2018-09-03T08:54:07.179Z,19.80
2018-09-03T08:56:35.337Z,19.90
2018-09-03T08:59:03.563Z,19.90
2018-09-03T09:01:31.740Z,20.00
2018-09-03T09:03:59.896Z,19.90
2018-09-03T09:06:28.102Z,19.90
2018-09-03T09:08:56.398Z,19.90
2018-09-03T09:11:24.618Z,19.90
2018-09-03T09:13:52.766Z,19.90
2018-09-03T09:16:21.041Z,19.90
2018-09-03T09:18:49.179Z,19.90
2018-09-03T09:21:17.416Z,20.00
2018-09-03T09:23:45.703Z,20.10
2018-09-03T09:26:14.014Z,20.00
2018-09-03T09:28:42.270Z,20.10
2018-09-03T09:31:10.446Z,20.20
2018-09-03T09:33:38.689Z,20.20
2018-09-03T09:36:06.890Z,20.20
2018-09-03T09:38:35.043Z,20.20
2018-09-03T09:41:03.312Z,20.30
2018-09-03T09:43:31.595Z,20.40
2018-09-03T09:45:59.734Z,20.50
2018-09-03T09:48:27.926Z,20.60
2018-09-03T09:50:56.090Z,20.70
2018-09-03T09:53:24.383Z,20.80
2018-09-03T09:55:52.593Z,20.90
2018-09-03T09:58:20.794Z,20.90
2018-09-03T10:00:54.384Z,21.00
2018-09-03T10:03:22.609Z,21.00
2018-09-03T10:05:50.860Z,20.90
2018-09-03T10:08:19.060Z,20.90
2018-09-03T10:10:47.254Z,20.80
2018-09-03T10:13:15.465Z,20.80
2018-09-03T10:15:43.691Z,20.90
2018-09-03T10:18:11.899Z,20.90
2018-09-03T10:20:40.160Z,20.90
2018-09-03T10:23:08.445Z,21.00
2018-09-03T10:25:36.762Z,21.00
2018-09-03T10:28:05.147Z,21.10
2018-09-03T10:30:33.345Z,21.20
2018-09-03T10:33:01.538Z,21.20
2018-09-03T10:35:29.791Z,21.30
2018-09-03T10:37:57.989Z,21.40
2018-09-03T10:40:26.190Z,21.40
2018-09-03T10:42:55.743Z,21.30
2018-09-03T10:45:24.140Z,21.30
2018-09-03T10:47:52.327Z,21.30
2018-09-03T10:50:20.506Z,21.20
2018-09-03T10:52:48.722Z,21.20
2018-09-03T10:55:16.900Z,21.20
2018-09-03T10:57:45.169Z,21.20
2018-09-03T11:00:13.913Z,21.20
2018-09-03T11:02:42.103Z,21.30
2018-09-03T11:05:10.589Z,21.30
2018-09-03T11:07:38.681Z,21.40
2018-09-03T11:10:06.895Z,21.50
2018-09-03T11:12:35.098Z,21.70
2018-09-03T11:15:03.322Z,21.90
2018-09-03T11:17:31.906Z,22.00
2018-09-03T11:20:02.011Z,22.00
2018-09-03T11:22:30.247Z,21.90
2018-09-03T11:24:59.103Z,21.80
2018-09-03T11:27:27.542Z,21.70
2018-09-03T11:29:55.750Z,21.60
2018-09-03T11:32:24.099Z,21.60
2018-09-03T11:34:52.375Z,21.50
2018-09-03T11:37:20.546Z,21.40
2018-09-03T11:39:48.732Z,21.40
2018-09-03T11:42:16.975Z,21.40
2018-09-03T11:44:45.166Z,21.40
2018-09-03T11:47:13.355Z,21.40
2018-09-03T11:49:41.554Z,21.50
2018-09-03T11:52:09.739Z,21.60
2018-09-03T11:54:38.124Z,21.70
2018-09-03T11:57:06.282Z,21.90
2018-09-03T11:59:34.475Z,22.00
2018-09-03T12:02:03.440Z,22.10
2018-09-03T12:04:31.699Z,22.10
2018-09-03T12:06:59.923Z,22.00
2018-09-03T12:09:28.138Z,21.90
2018-09-03T12:11:56.354Z,21.80
2018-09-03T12:14:30.910Z,21.90
2018-09-03T12:16:59.472Z,21.90
2018-09-03T12:19:27.686Z,21.70
2018-09-03T12:21:56.054Z,21.60
2018-09-03T12:24:24.298Z,21.50
2018-09-03T12:26:52.495Z,21.50
2018-09-03T12:29:20.834Z,21.50
2018-09-03T12:31:49.054Z,21.40
2018-09-03T12:34:17.246Z,21.50
2018-09-03T12:36:45.590Z,21.50
2018-09-03T12:39:13.767Z,21.50
2018-09-03T12:41:42.003Z,21.60
2018-09-03T12:44:10.258Z,21.60
2018-09-03T12:46:38.446Z,21.60
2018-09-03T12:49:06.634Z,21.60
2018-09-03T12:51:34.889Z,21.60
2018-09-03T12:54:03.106Z,21.60
2018-09-03T12:56:31.334Z,21.60
2018-09-03T12:58:59.519Z,21.50
2018-09-03T13:01:27.816Z,21.50
2018-09-03T13:03:55.986Z,21.50
2018-09-03T13:06:24.234Z,21.60
2018-09-03T13:08:52.562Z,21.50
2018-09-03T13:11:20.778Z,21.50
2018-09-03T13:13:49.012Z,21.40
2018-09-03T13:16:17.557Z,21.40
2018-09-03T13:18:45.769Z,21.40
2018-09-03T13:21:13.921Z,21.40
2018-09-03T13:23:42.343Z,21.50
2018-09-03T13:26:10.534Z,21.50
2018-09-03T13:28:38.757Z,21.40
2018-09-03T13:31:06.953Z,21.40
2018-09-03T13:33:35.122Z,21.40
2018-09-03T13:36:03.367Z,21.40
2018-09-03T13:38:31.634Z,21.40
2018-09-03T13:40:59.802Z,21.40
2018-09-03T13:43:28.018Z,21.40
2018-09-03T13:45:56.190Z,21.40
2018-09-03T13:48:24.433Z,21.40
2018-09-03T13:50:52.771Z,21.50
2018-09-03T13:53:20.931Z,21.50
2018-09-03T13:55:49.119Z,21.50
2018-09-03T13:58:17.331Z,21.40
2018-09-03T14:00:45.767Z,21.40
2018-09-03T14:03:14.308Z,21.40
2018-09-03T14:05:42.444Z,21.40
2018-09-03T14:08:10.690Z,21.40
2018-09-03T14:10:38.843Z,21.40
2018-09-03T14:13:07.122Z,21.40
2018-09-03T14:15:35.355Z,21.40
2018-09-03T14:18:03.505Z,21.40
2018-09-03T14:20:31.918Z,21.40
2018-09-03T14:23:00.106Z,21.50
2018-09-03T14:25:28.337Z,21.50
2018-09-03T14:27:56.509Z,21.40
2018-09-03T14:30:24.814Z,21.50
2018-09-03T14:32:52.961Z,21.50
2018-09-03T14:35:21.122Z,21.60
2018-09-03T14:37:49.387Z,21.60
2018-09-03T14:40:17.560Z,21.50
2018-09-03T14:42:46.252Z,21.40
2018-09-03T14:45:14.529Z,21.50
2018-09-03T14:47:42.737Z,21.50
2018-09-03T14:50:10.890Z,21.50
2018-09-03T14:52:39.102Z,21.50
2018-09-03T14:55:07.355Z,21.50
2018-09-03T14:57:35.534Z,21.40
2018-09-03T15:00:03.891Z,21.40
2018-09-03T15:02:32.107Z,21.40
2018-09-03T15:05:00.365Z,21.40
2018-09-03T15:07:28.532Z,21.40
2018-09-03T15:09:56.714Z,21.40
2018-09-03T15:12:24.990Z,21.50
2018-09-03T15:14:53.265Z,21.50
2018-09-03T15:17:21.470Z,21.60
2018-09-03T15:19:49.684Z,21.60
2018-09-03T15:22:18.044Z,21.60
2018-09-03T15:24:46.226Z,21.60
2018-09-03T15:27:14.474Z,21.60
2018-09-03T15:29:42.706Z,21.60
2018-09-03T15:32:10.918Z,21.60
2018-09-03T15:34:39.111Z,21.60
2018-09-03T15:37:07.294Z,21.60
2018-09-03T15:39:35.515Z,21.60
2018-09-03T15:42:03.938Z,21.70
2018-09-03T15:44:32.151Z,21.70
2018-09-03T15:47:00.442Z,21.70
2018-09-03T15:49:28.619Z,21.70
2018-09-03T15:51:56.823Z,21.70
2018-09-03T15:54:24.978Z,21.70
2018-09-03T15:56:53.183Z,21.70
2018-09-03T15:59:21.359Z,21.70
2018-09-03T16:01:49.535Z,21.70
2018-09-03T16:04:17.762Z,21.70
2018-09-03T16:06:45.974Z,21.60
2018-09-03T16:09:14.320Z,21.60
2018-09-03T16:11:42.434Z,21.60
2018-09-03T16:14:10.595Z,21.60
2018-09-03T16:16:38.775Z,21.50
2018-09-03T16:19:06.913Z,21.50
2018-09-03T16:21:35.130Z,21.50
2018-09-03T16:24:03.279Z,21.50
2018-09-03T16:26:31.465Z,21.50
2018-09-03T16:28:59.642Z,21.50
2018-09-03T16:31:27.855Z,21.50
2018-09-03T16:33:56.187Z,21.40
2018-09-03T16:36:24.341Z,21.40
2018-09-03T16:38:52.627Z,21.40
2018-09-03T16:41:20.699Z,21.40
2018-09-03T16:43:48.889Z,21.40
2018-09-03T16:46:17.130Z,21.30
2018-09-03T16:48:45.302Z,21.30
2018-09-03T16:51:13.538Z,21.40
2018-09-03T16:53:41.718Z,21.30
2018-09-03T16:56:09.890Z,21.30
2018-09-03T16:58:38.208Z,21.30
2018-09-03T17:01:06.440Z,21.30
2018-09-03T17:03:34.582Z,21.30
2018-09-03T17:06:02.755Z,21.30
2018-09-03T17:08:30.978Z,21.30
2018-09-03T17:10:59.150Z,21.20
2018-09-03T17:13:27.398Z,21.20
2018-09-03T17:15:55.618Z,21.20
2018-09-03T17:18:23.814Z,21.20
2018-09-03T17:20:51.990Z,21.20
2018-09-03T17:23:20.163Z,21.20
2018-09-03T17:25:48.335Z,21.20
2018-09-03T17:28:16.510Z,21.20
2018-09-03T17:30:44.686Z,21.20
2018-09-03T17:33:12.842Z,21.20
2018-09-03T17:35:41.019Z,21.20
2018-09-03T17:38:09.242Z,21.20
2018-09-03T17:40:37.400Z,21.20
2018-09-03T17:43:05.634Z,21.20
2018-09-03T17:45:33.790Z,21.20
2018-09-03T17:48:02.019Z,21.20
2018-09-03T17:50:30.170Z,21.20
2018-09-03T17:52:58.418Z,21.20
2018-09-03T17:55:26.594Z,21.20
2018-09-03T17:57:54.798Z,21.20
2018-09-03T18:00:22.998Z,21.20
2018-09-03T18:02:51.187Z,21.20
2018-09-03T18:05:19.398Z,21.20
2018-09-03T18:07:47.653Z,21.20
2018-09-03T18:10:15.844Z,21.20
2018-09-03T18:12:44.050Z,21.20
2018-09-03T18:15:12.234Z,21.20
2018-09-03T18:17:40.422Z,21.20
2018-09-03T18:20:08.846Z,21.20
2018-09-03T18:22:37.067Z,21.30
2018-09-03T18:25:05.311Z,21.30
2018-09-03T18:27:33.511Z,21.30
2018-09-03T18:30:01.751Z,21.30
2018-09-03T18:32:29.890Z,21.30
2018-09-03T18:34:58.094Z,21.30
2018-09-03T18:37:26.294Z,21.30
2018-09-03T18:39:54.466Z,21.20
2018-09-03T18:42:22.654Z,21.20
2018-09-03T18:44:50.947Z,21.20
2018-09-03T18:47:19.220Z,21.20
2018-09-03T18:49:47.430Z,21.20
2018-09-03T18:52:15.633Z,21.20
2018-09-03T18:54:43.869Z,21.20
2018-09-03T18:57:12.070Z,21.20
2018-09-03T18:59:40.286Z,21.10
2018-09-03T19:02:08.484Z,21.10
2018-09-03T19:04:36.703Z,21.10
2018-09-03T19:07:05.833Z,21.10
2018-09-03T19:09:34.047Z,21.10
2018-09-03T19:12:02.615Z,21.10
2018-09-03T19:14:30.822Z,21.10
2018-09-03T19:16:59.160Z,21.10
2018-09-03T19:19:27.499Z,21.00
2018-09-03T19:21:55.702Z,21.00
2018-09-03T19:24:23.910Z,21.00
2018-09-03T19:26:52.139Z,21.00
2018-09-03T19:29:20.374Z,21.00
2018-09-03T19:31:48.572Z,21.00
2018-09-03T19:34:16.750Z,20.90
2018-09-03T19:37:04.403Z,20.90
2018-09-03T19:39:33.409Z,20.90
2018-09-03T19:42:01.683Z,20.90
2018-09-03T19:44:30.069Z,20.90
2018-09-03T19:46:58.361Z,20.80
2018-09-03T19:49:26.627Z,20.80
2018-09-03T19:51:54.794Z,20.80
2018-09-03T19:54:23.086Z,20.80
2018-09-03T19:56:51.293Z,20.70
2018-09-03T19:59:19.575Z,20.70
2018-09-03T20:01:47.763Z,20.70
2018-09-03T20:04:15.987Z,20.70
2018-09-03T20:06:44.245Z,20.70
2018-09-03T20:09:12.481Z,20.70
2018-09-03T20:11:40.711Z,20.40
2018-09-03T20:14:08.928Z,20.60
2018-09-03T20:16:37.266Z,20.60
2018-09-03T20:19:05.586Z,20.60
2018-09-03T20:21:33.790Z,20.60
2018-09-03T20:24:02.055Z,20.60
2018-09-03T20:26:30.290Z,20.60
2018-09-03T20:28:58.524Z,20.60
2018-09-03T20:31:26.696Z,20.60
2018-09-03T20:33:54.878Z,20.60
2018-09-03T20:36:23.236Z,20.60
2018-09-03T20:38:51.374Z,20.60
2018-09-03T20:41:19.582Z,20.60
2018-09-03T20:43:47.826Z,20.50
2018-09-03T20:46:16.008Z,20.50
2018-09-03T20:48:44.178Z,20.50
2018-09-03T20:51:12.493Z,20.50
2018-09-03T20:53:40.694Z,20.60
2018-09-03T20:56:08.939Z,20.60
2018-09-03T20:58:37.140Z,20.60
2018-09-03T21:01:05.573Z,20.60
2018-09-03T21:03:33.741Z,20.60
2018-09-03T21:06:01.903Z,20.70
2018-09-03T21:08:30.121Z,20.70
2018-09-03T21:10:58.238Z,20.60
2018-09-03T21:13:26.374Z,20.50
2018-09-03T21:15:54.522Z,20.50
2018-09-03T21:18:22.713Z,20.40
2018-09-03T21:20:50.858Z,20.40
2018-09-03T21:23:18.994Z,20.40
2018-09-03T21:25:47.141Z,20.40
2018-09-03T21:28:15.282Z,20.40
2018-09-03T21:30:43.431Z,20.40
2018-09-03T21:33:11.561Z,20.40
2018-09-03T21:35:39.782Z,20.40
2018-09-03T21:38:08.962Z,20.40
2018-09-03T21:40:37.122Z,20.40
2018-09-03T21:43:05.318Z,20.40
2018-09-03T21:45:33.464Z,20.40
2018-09-03T21:48:01.619Z,20.30
2018-09-03T21:50:29.759Z,20.30
2018-09-03T21:52:57.940Z,20.30
2018-09-03T21:55:26.085Z,20.20
2018-09-03T21:57:54.227Z,20.20
2018-09-03T22:00:22.402Z,20.10
2018-09-03T22:02:50.551Z,20.10
2018-09-03T22:05:18.753Z,20.10
2018-09-03T22:07:46.853Z,20.10
2018-09-03T22:10:14.994Z,20.10
2018-09-03T22:12:43.151Z,20.10
2018-09-03T22:15:11.294Z,20.10
2018-09-03T22:17:39.443Z,20.10
2018-09-03T22:20:07.587Z,20.10
2018-09-03T22:22:35.746Z,20.10
2018-09-03T22:25:03.931Z,20.00
2018-09-03T22:27:32.123Z,20.10
2018-09-03T22:30:00.283Z,20.00
2018-09-03T22:32:28.427Z,20.00
2018-09-03T22:34:56.566Z,20.00
2018-09-03T22:37:24.723Z,20.00
2018-09-03T22:39:52.859Z,20.00
2018-09-03T22:42:24.574Z,20.00
2018-09-03T22:44:53.015Z,19.90
2018-09-03T22:47:21.182Z,19.80
2018-09-03T22:49:49.323Z,19.80
2018-09-03T22:52:17.469Z,19.80
2018-09-03T22:54:45.618Z,19.80
2018-09-03T22:57:13.758Z,19.70
2018-09-03T22:59:41.896Z,19.70
2018-09-03T23:02:10.039Z,19.80
2018-09-03T23:04:38.185Z,19.80
2018-09-03T23:07:06.339Z,19.80
2018-09-03T23:09:34.490Z,19.80
2018-09-03T23:12:02.642Z,19.70
2018-09-03T23:14:30.791Z,19.80
2018-09-03T23:16:58.934Z,19.80
2018-09-03T23:19:27.082Z,19.70
2018-09-03T23:21:55.226Z,19.70
2018-09-03T23:24:23.375Z,19.60
2018-09-03T23:26:51.511Z,19.60
2018-09-03T23:29:19.698Z,19.60
2018-09-03T23:31:47.850Z,19.60
2018-09-03T23:34:15.998Z,19.60
2018-09-03T23:36:44.146Z,19.50
2018-09-03T23:39:12.319Z,19.50
2018-09-03T23:41:40.454Z,19.40
2018-09-03T23:44:08.630Z,19.40
2018-09-03T23:46:36.770Z,19.40
2018-09-03T23:49:04.911Z,19.40
2018-09-03T23:51:33.062Z,19.40
2018-09-03T23:54:01.248Z,19.40
2018-09-03T23:56:29.459Z,19.40
2018-09-03T23:58:57.643Z,19.30
